Time,TemperatureF,DewpointF,PressureIn,WindDirection,WindDirectionDegrees,WindSpeedMPH,WindSpeedGustMPH,Humidity,HourlyPrecipIn,Conditions,Clouds,dailyrainin,SoftwareType,DateUTC
2013-09-17 00:00:00,45.1,41.2,30.29,South,173,0.0,0.0,86,0.00,,,0.00,Wunderground v.1.15,2013-09-17 05:00:00,
2013-09-17 00:30:00,44.5,40.9,30.28,South,173,0.0,0.0,87,0.00,,,0.00,Wunderground v.1.15,2013-09-17 05:30:00,
2013-09-17 01:00:00,44.2,40.9,30.28,South,173,0.0,0.0,88,0.00,,,0.00,Wunderground v.1.15,2013-09-17 06:00:00,
2013-09-17 01:30:00,44.2,41.2,30.28,South,173,0.0,0.0,89,0.00,,,0.00,Wunderground v.1.15,2013-09-17 06:30:00,
2013-09-17 02:00:00,44.1,41.4,30.28,South,173,0.0,0.0,90,0.00,,,0.00,Wunderground v.1.15,2013-09-17 07:00:00,
2013-09-17 02:30:00,43.9,41.2,30.27,South,173,0.0,0.0,90,0.00,,,0.00,Wunderground v.1.15,2013-09-17 07:30:00,
2013-09-17 03:00:00,44.1,41.4,30.27,South,173,0.0,0.0,90,0.00,,,0.00,Wunderground v.1.15,2013-09-17 08:00:00,
2013-09-17 03:30:00,43.9,41.2,30.27,South,173,0.0,0.0,90,0.00,,,0.00,Wunderground v.1.15,2013-09-17 08:30:00,
2013-09-17 04:00:00,43.3,40.6,30.26,South,173,0.0,0.0,90,0.00,,,0.00,Wunderground v.1.15,2013-09-17 09:00:00,
2013-09-17 04:30:00,42.6,39.9,30.26,South,173,0.0,0.0,90,0.00,,,0.00,Wunderground v.1.15,2013-09-17 09:30:00,
2013-09-17 05:00:00,42.3,39.9,30.25,South,173,0.0,0.0,91,0.00,,,0.00,Wunderground v.1.15,2013-09-17 10:00:00,
2013-09-17 05:30:00,42.0,39.6,30.25,South,173,0.0,0.0,91,0.00,,,0.00,Wunderground v.1.15,2013-09-17 10:30:00,
2013-09-17 06:00:00,42.3,40.1,30.24,South,173,0.0,0.0,92,0.00,,,0.00,Wunderground v.1.15,2013-09-17 11:00:00,
2013-09-17 06:30:00,43.4,41.8,30.23,South,173,0.0,0.0,94,0.00,,,0.00,Wunderground v.1.15,2013-09-17 11:30:00,
2013-09-17 07:00:00,44.3,42.7,30.22,South,173,0.0,0.0,94,0.00,,,0.00,Wunderground v.1.15,2013-09-17 12:00:00,
2013-09-17 07:30:00,44.9,43.3,30.22,South,173,0.0,0.0,94,0.00,,,0.00,Wunderground v.1.15,2013-09-17 12:30:00,
2013-09-17 08:00:00,46.2,44.8,30.21,South,173,0.0,1.0,95,0.00,,,0.00,Wunderground v.1.15,2013-09-17 13:00:00,
2013-09-17 08:30:00,48.3,46.9,30.17,South,173,0.0,0.0,95,0.00,,,0.00,Wunderground v.1.15,2013-09-17 13:30:00,
2013-09-17 09:00:00,50.5,49.1,30.16,South,171,0.0,0.0,95,0.00,,,0.00,Wunderground v.1.15,2013-09-17 14:00:00,
2013-09-17 09:30:00,52.2,50.2,30.15,SSE,147,1.0,1.0,93,0.00,,,0.00,Wunderground v.1.15,2013-09-17 14:30:00,
2013-09-17 10:00:00,54.2,49.8,30.15,SE,144,1.0,1.0,85,0.00,,,0.00,Wunderground v.1.15,2013-09-17 15:00:00,
2013-09-17 10:30:00,55.9,49.8,30.13,SSW,202,1.0,1.0,80,0.00,,,0.00,Wunderground v.1.15,2013-09-17 15:30:00,
2013-09-17 11:00:00,57.1,51.0,30.13,South,186,0.0,1.0,80,0.00,,,0.00,Wunderground v.1.15,2013-09-17 16:00:00,
2013-09-17 11:30:00,58.0,51.5,30.12,SSE,159,1.0,4.0,79,0.00,,,0.00,Wunderground v.1.15,2013-09-17 16:30:00,
2013-09-17 12:00:00,59.0,52.1,30.11,South,171,1.0,1.0,78,0.00,,,0.00,Wunderground v.1.15,2013-09-17 17:00:00,
2013-09-17 12:30:00,60.0,52.4,30.10,ESE,122,2.0,4.0,76,0.00,,,0.00,Wunderground v.1.15,2013-09-17 17:30:00,
2013-09-17 13:00:00,60.6,53.0,30.09,SSW,199,1.0,1.0,76,0.00,,,0.00,Wunderground v.1.15,2013-09-17 18:00:00,
2013-09-17 13:30:00,61.0,53.4,30.08,SSW,207,0.0,0.0,76,0.00,,,0.00,Wunderground v.1.15,2013-09-17 18:30:00,
2013-09-17 14:00:00,61.1,53.8,30.06,SSE,161,1.0,1.0,77,0.00,,,0.00,Wunderground v.1.15,2013-09-17 19:00:00,
2013-09-17 14:30:00,61.2,53.9,30.05,SSE,163,1.0,2.0,77,0.00,,,0.00,Wunderground v.1.15,2013-09-17 19:30:00,
2013-09-17 15:00:00,61.2,53.9,30.04,NE,51,0.0,0.0,77,0.00,,,0.00,Wunderground v.1.15,2013-09-17 20:00:00,
2013-09-17 15:30:00,62.5,55.2,30.01,SE,139,0.0,0.0,77,0.00,,,0.00,Wunderground v.1.15,2013-09-17 20:30:00,
2013-09-17 16:00:00,63.6,55.9,30.00,SE,126,0.0,0.0,76,0.00,,,0.00,Wunderground v.1.15,2013-09-17 21:00:00,
2013-09-17 16:30:00,63.4,55.7,29.99,SW,217,2.0,2.0,76,0.00,,,0.00,Wunderground v.1.15,2013-09-17 21:30:00,
2013-09-17 17:00:00,63.0,55.7,29.99,SSE,155,1.0,1.0,77,0.00,,,0.00,Wunderground v.1.15,2013-09-17 22:00:00,
2013-09-17 17:30:00,62.0,55.4,29.99,SSE,155,1.0,6.0,79,0.00,,,0.00,Wunderground v.1.15,2013-09-17 22:30:00,
2013-09-17 18:00:00,61.5,54.9,29.99,South,169,1.0,2.0,79,0.00,,,0.00,Wunderground v.1.15,2013-09-17 23:00:00,
2013-09-17 18:30:00,61.2,55.0,29.97,SSW,209,1.0,1.0,80,0.00,,,0.00,Wunderground v.1.15,2013-09-17 23:30:00,
2013-09-17 19:00:00,60.6,54.4,29.96,SSE,147,1.0,1.0,80,0.00,,,0.00,Wunderground v.1.15,2013-09-18 00:00:00,
2013-09-17 19:30:00,60.3,54.4,29.96,SSE,155,0.0,0.0,81,0.00,,,0.00,Wunderground v.1.15,2013-09-18 00:30:00,
2013-09-17 20:00:00,60.1,53.9,29.96,SE,124,0.0,2.0,80,0.00,,,0.00,Wunderground v.1.15,2013-09-18 01:00:00,
2013-09-17 20:30:00,60.0,53.5,29.96,East,91,2.0,2.0,79,0.00,,,0.00,Wunderground v.1.15,2013-09-18 01:30:00,
2013-09-17 21:00:00,59.5,54.0,29.95,ESE,118,1.0,2.0,82,0.00,,,0.00,Wunderground v.1.15,2013-09-18 02:00:00,
2013-09-17 21:30:00,59.0,54.2,29.95,SSE,157,1.0,1.0,84,0.00,,,0.00,Wunderground v.1.15,2013-09-18 02:30:00,
2013-09-17 22:00:00,58.3,54.1,29.95,South,185,1.0,5.0,86,0.00,,,0.00,Wunderground v.1.15,2013-09-18 03:00:00,
2013-09-17 22:30:00,57.6,53.8,29.95,South,177,0.0,0.0,87,0.00,,,0.00,Wunderground v.1.15,2013-09-18 03:30:00,
2013-09-17 23:00:00,57.1,54.2,29.95,SSW,193,1.0,1.0,90,0.00,,,0.00,Wunderground v.1.15,2013-09-18 04:00:00,
2013-09-17 23:30:00,56.8,54.2,29.94,SSE,163,0.0,0.0,91,0.00,,,0.00,Wunderground v.1.15,2013-09-18 04:30:00,